sensor_id;sensor_type;location;lat;lon;timestamp;P1;durP1;ratioP1;P2;durP2;ratioP2
18082;SDS011;9168;51.194;6.840;2022-11-15T00:00:54;18.10;;;7.85;;
18082;SDS011;9168;51.194;6.840;2022-11-15T00:03:22;15.05;;;7.68;;
18082;SDS011;9168;51.194;6.840;2022-11-15T00:05:51;10.85;;;6.75;;
18082;SDS011;9168;51.194;6.840;2022-11-15T00:08:20;12.57;;;7.47;;
18082;SDS011;9168;51.194;6.840;2022-11-15T00:10:53;14.88;;;7.70;;
18082;SDS011;9168;51.194;6.840;2022-11-15T00:13:21;15.63;;;8.02;;
18082;SDS011;9168;51.194;6.840;2022-11-15T00:15:48;18.25;;;7.60;;
18082;SDS011;9168;51.194;6.840;2022-11-15T00:18:15;16.63;;;7.55;;
18082;SDS011;9168;51.194;6.840;2022-11-15T00:20:43;19.30;;;7.75;;
18082;SDS011;9168;51.194;6.840;2022-11-15T00:23:10;17.65;;;7.78;;
18082;SDS011;9168;51.194;6.840;2022-11-15T00:25:38;14.07;;;7.10;;
18082;SDS011;9168;51.194;6.840;2022-11-15T00:28:06;15.95;;;8.50;;
18082;SDS011;9168;51.194;6.840;2022-11-15T00:30:32;15.90;;;7.80;;
18082;SDS011;9168;51.194;6.840;2022-11-15T00:33:01;14.98;;;7.75;;
18082;SDS011;9168;51.194;6.840;2022-11-15T00:35:28;17.95;;;7.38;;
18082;SDS011;9168;51.194;6.840;2022-11-15T00:37:57;18.30;;;7.78;;
18082;SDS011;9168;51.194;6.840;2022-11-15T00:40:24;15.13;;;7.78;;
18082;SDS011;9168;51.194;6.840;2022-11-15T00:42:52;18.00;;;7.88;;
18082;SDS011;9168;51.194;6.840;2022-11-15T00:45:19;20.58;;;8.52;;
18082;SDS011;9168;51.194;6.840;2022-11-15T00:47:46;15.75;;;7.63;;
18082;SDS011;9168;51.194;6.840;2022-11-15T00:50:13;23.85;;;8.45;;
18082;SDS011;9168;51.194;6.840;2022-11-15T00:52:40;18.23;;;8.10;;
18082;SDS011;9168;51.194;6.840;2022-11-15T00:55:08;19.20;;;7.88;;
18082;SDS011;9168;51.194;6.840;2022-11-15T00:57:39;19.27;;;7.38;;
18082;SDS011;9168;51.194;6.840;2022-11-15T01:00:08;15.27;;;7.38;;
18082;SDS011;9168;51.194;6.840;2022-11-15T01:02:36;13.63;;;6.88;;
18082;SDS011;9168;51.194;6.840;2022-11-15T01:05:03;12.88;;;7.15;;
18082;SDS011;9168;51.194;6.840;2022-11-15T01:07:30;14.07;;;7.32;;
18082;SDS011;9168;51.194;6.840;2022-11-15T01:09:57;12.48;;;7.75;;
18082;SDS011;9168;51.194;6.840;2022-11-15T01:12:24;20.98;;;7.35;;
18082;SDS011;9168;51.194;6.840;2022-11-15T01:14:51;15.00;;;7.43;;
18082;SDS011;9168;51.194;6.840;2022-11-15T01:17:19;18.33;;;7.55;;
18082;SDS011;9168;51.194;6.840;2022-11-15T01:19:46;16.33;;;6.95;;
18082;SDS011;9168;51.194;6.840;2022-11-15T01:22:13;17.95;;;7.97;;
18082;SDS011;9168;51.194;6.840;2022-11-15T01:24:39;20.02;;;7.40;;
18082;SDS011;9168;51.194;6.840;2022-11-15T01:27:06;14.05;;;6.75;;
18082;SDS011;9168;51.194;6.840;2022-11-15T01:29:33;15.40;;;7.00;;
18082;SDS011;9168;51.194;6.840;2022-11-15T01:32:00;16.40;;;7.22;;
18082;SDS011;9168;51.194;6.840;2022-11-15T01:34:29;15.02;;;7.30;;
18082;SDS011;9168;51.194;6.840;2022-11-15T01:36:56;16.80;;;7.63;;
18082;SDS011;9168;51.194;6.840;2022-11-15T01:39:22;16.38;;;8.38;;
18082;SDS011;9168;51.194;6.840;2022-11-15T01:41:49;23.08;;;7.90;;
18082;SDS011;9168;51.194;6.840;2022-11-15T01:44:31;19.90;;;7.88;;
18082;SDS011;9168;51.194;6.840;2022-11-15T01:47:05;16.33;;;7.38;;
18082;SDS011;9168;51.194;6.840;2022-11-15T01:49:37;18.20;;;8.18;;
18082;SDS011;9168;51.194;6.840;2022-11-15T01:52:09;18.45;;;7.82;;
18082;SDS011;9168;51.194;6.840;2022-11-15T01:54:38;21.48;;;7.50;;
18082;SDS011;9168;51.194;6.840;2022-11-15T01:57:06;18.98;;;7.40;;
18082;SDS011;9168;51.194;6.840;2022-11-15T01:59:36;17.55;;;7.75;;
18082;SDS011;9168;51.194;6.840;2022-11-15T02:02:05;18.38;;;7.72;;
18082;SDS011;9168;51.194;6.840;2022-11-15T02:04:32;14.18;;;8.05;;
18082;SDS011;9168;51.194;6.840;2022-11-15T02:07:04;16.73;;;8.27;;
18082;SDS011;9168;51.194;6.840;2022-11-15T02:09:32;16.00;;;8.10;;
18082;SDS011;9168;51.194;6.840;2022-11-15T02:11:59;13.20;;;7.07;;
18082;SDS011;9168;51.194;6.840;2022-11-15T02:14:26;19.23;;;7.53;;
18082;SDS011;9168;51.194;6.840;2022-11-15T02:16:57;16.10;;;7.85;;
18082;SDS011;9168;51.194;6.840;2022-11-15T02:19:31;15.05;;;7.35;;
18082;SDS011;9168;51.194;6.840;2022-11-15T02:22:26;17.30;;;7.63;;
18082;SDS011;9168;51.194;6.840;2022-11-15T02:25:06;16.83;;;8.13;;
18082;SDS011;9168;51.194;6.840;2022-11-15T02:30:49;19.40;;;7.38;;
18082;SDS011;9168;51.194;6.840;2022-11-15T02:33:25;20.30;;;7.78;;
18082;SDS011;9168;51.194;6.840;2022-11-15T02:36:01;16.50;;;7.90;;
18082;SDS011;9168;51.194;6.840;2022-11-15T02:38:33;14.52;;;7.35;;
18082;SDS011;9168;51.194;6.840;2022-11-15T02:41:07;18.20;;;7.55;;
18082;SDS011;9168;51.194;6.840;2022-11-15T02:43:37;14.82;;;7.43;;
18082;SDS011;9168;51.194;6.840;2022-11-15T02:46:23;17.52;;;8.30;;
18082;SDS011;9168;51.194;6.840;2022-11-15T02:49:10;16.80;;;7.72;;
18082;SDS011;9168;51.194;6.840;2022-11-15T02:51:39;14.60;;;7.32;;
18082;SDS011;9168;51.194;6.840;2022-11-15T02:54:07;16.45;;;7.72;;
18082;SDS011;9168;51.194;6.840;2022-11-15T02:56:38;18.25;;;7.80;;
18082;SDS011;9168;51.194;6.840;2022-11-15T03:02:04;16.75;;;7.95;;
18082;SDS011;9168;51.194;6.840;2022-11-15T03:04:42;13.50;;;7.53;;
18082;SDS011;9168;51.194;6.840;2022-11-15T03:07:14;17.33;;;7.80;;
18082;SDS011;9168;51.194;6.840;2022-11-15T03:09:47;13.70;;;7.70;;
18082;SDS011;9168;51.194;6.840;2022-11-15T03:12:21;21.95;;;8.00;;
18082;SDS011;9168;51.194;6.840;2022-11-15T03:14:54;17.80;;;8.05;;
18082;SDS011;9168;51.194;6.840;2022-11-15T03:17:27;16.92;;;7.60;;
18082;SDS011;9168;51.194;6.840;2022-11-15T03:19:57;18.55;;;7.82;;
18082;SDS011;9168;51.194;6.840;2022-11-15T03:22:27;13.80;;;7.07;;
18082;SDS011;9168;51.194;6.840;2022-11-15T03:25:00;16.80;;;8.15;;
18082;SDS011;9168;51.194;6.840;2022-11-15T03:27:31;14.20;;;8.30;;
18082;SDS011;9168;51.194;6.840;2022-11-15T03:30:05;22.00;;;8.55;;
18082;SDS011;9168;51.194;6.840;2022-11-15T03:32:36;15.30;;;8.65;;
18082;SDS011;9168;51.194;6.840;2022-11-15T03:35:06;15.55;;;7.50;;
18082;SDS011;9168;51.194;6.840;2022-11-15T03:37:37;14.98;;;7.88;;
18082;SDS011;9168;51.194;6.840;2022-11-15T03:40:08;20.58;;;7.70;;
18082;SDS011;9168;51.194;6.840;2022-11-15T03:42:38;14.65;;;7.32;;
18082;SDS011;9168;51.194;6.840;2022-11-15T03:45:12;16.30;;;7.30;;
18082;SDS011;9168;51.194;6.840;2022-11-15T03:47:45;11.30;;;6.93;;
18082;SDS011;9168;51.194;6.840;2022-11-15T03:50:16;12.48;;;7.13;;
18082;SDS011;9168;51.194;6.840;2022-11-15T03:52:45;15.57;;;7.32;;
18082;SDS011;9168;51.194;6.840;2022-11-15T03:55:15;12.23;;;6.72;;
18082;SDS011;9168;51.194;6.840;2022-11-15T03:57:43;18.63;;;7.47;;
18082;SDS011;9168;51.194;6.840;2022-11-15T04:00:10;12.90;;;6.75;;
18082;SDS011;9168;51.194;6.840;2022-11-15T04:02:38;13.63;;;8.02;;
18082;SDS011;9168;51.194;6.840;2022-11-15T04:05:06;15.30;;;7.60;;
18082;SDS011;9168;51.194;6.840;2022-11-15T04:07:33;16.90;;;6.93;;
18082;SDS011;9168;51.194;6.840;2022-11-15T04:10:00;19.08;;;7.32;;
18082;SDS011;9168;51.194;6.840;2022-11-15T04:12:30;13.38;;;7.10;;
18082;SDS011;9168;51.194;6.840;2022-11-15T04:14:58;11.77;;;6.35;;
18082;SDS011;9168;51.194;6.840;2022-11-15T04:17:38;12.35;;;6.47;;
18082;SDS011;9168;51.194;6.840;2022-11-15T04:20:10;14.45;;;7.80;;
18082;SDS011;9168;51.194;6.840;2022-11-15T04:22:56;12.35;;;6.55;;
18082;SDS011;9168;51.194;6.840;2022-11-15T04:25:41;16.85;;;6.88;;
18082;SDS011;9168;51.194;6.840;2022-11-15T04:28:09;14.18;;;6.68;;
18082;SDS011;9168;51.194;6.840;2022-11-15T04:30:36;13.10;;;6.97;;
18082;SDS011;9168;51.194;6.840;2022-11-15T04:33:03;12.15;;;6.50;;
18082;SDS011;9168;51.194;6.840;2022-11-15T04:35:31;15.15;;;6.50;;
18082;SDS011;9168;51.194;6.840;2022-11-15T04:37:59;15.82;;;6.30;;
18082;SDS011;9168;51.194;6.840;2022-11-15T04:40:26;13.38;;;6.88;;
18082;SDS011;9168;51.194;6.840;2022-11-15T04:42:53;15.55;;;7.30;;
18082;SDS011;9168;51.194;6.840;2022-11-15T04:45:20;13.05;;;7.50;;
18082;SDS011;9168;51.194;6.840;2022-11-15T04:47:47;11.65;;;6.85;;
18082;SDS011;9168;51.194;6.840;2022-11-15T04:50:14;13.57;;;7.72;;
18082;SDS011;9168;51.194;6.840;2022-11-15T04:52:46;13.45;;;7.50;;
18082;SDS011;9168;51.194;6.840;2022-11-15T04:55:16;17.10;;;7.20;;
18082;SDS011;9168;51.194;6.840;2022-11-15T04:57:43;12.35;;;7.15;;
18082;SDS011;9168;51.194;6.840;2022-11-15T05:00:11;13.65;;;7.32;;
18082;SDS011;9168;51.194;6.840;2022-11-15T05:02:41;15.23;;;7.63;;
18082;SDS011;9168;51.194;6.840;2022-11-15T05:05:25;15.00;;;7.22;;
18082;SDS011;9168;51.194;6.840;2022-11-15T05:07:54;11.65;;;7.22;;
18082;SDS011;9168;51.194;6.840;2022-11-15T05:10:21;15.40;;;7.40;;
18082;SDS011;9168;51.194;6.840;2022-11-15T05:12:47;17.63;;;7.72;;
18082;SDS011;9168;51.194;6.840;2022-11-15T05:15:14;13.85;;;7.20;;
18082;SDS011;9168;51.194;6.840;2022-11-15T05:17:41;15.40;;;6.82;;
18082;SDS011;9168;51.194;6.840;2022-11-15T05:20:09;13.65;;;7.78;;
18082;SDS011;9168;51.194;6.840;2022-11-15T05:22:36;19.65;;;8.05;;
18082;SDS011;9168;51.194;6.840;2022-11-15T05:25:05;16.10;;;7.78;;
18082;SDS011;9168;51.194;6.840;2022-11-15T05:27:33;17.55;;;8.20;;
18082;SDS011;9168;51.194;6.840;2022-11-15T05:30:00;18.23;;;8.23;;
18082;SDS011;9168;51.194;6.840;2022-11-15T05:32:27;17.08;;;7.72;;
18082;SDS011;9168;51.194;6.840;2022-11-15T05:34:54;13.15;;;7.90;;
18082;SDS011;9168;51.194;6.840;2022-11-15T05:37:21;14.43;;;7.65;;
18082;SDS011;9168;51.194;6.840;2022-11-15T05:39:48;13.57;;;7.15;;
18082;SDS011;9168;51.194;6.840;2022-11-15T05:42:16;10.68;;;7.35;;
18082;SDS011;9168;51.194;6.840;2022-11-15T05:44:46;12.77;;;7.32;;
18082;SDS011;9168;51.194;6.840;2022-11-15T05:47:16;15.75;;;8.10;;
18082;SDS011;9168;51.194;6.840;2022-11-15T05:49:46;13.30;;;8.25;;
18082;SDS011;9168;51.194;6.840;2022-11-15T05:52:17;11.82;;;7.45;;
18082;SDS011;9168;51.194;6.840;2022-11-15T05:54:46;15.30;;;7.28;;
18082;SDS011;9168;51.194;6.840;2022-11-15T05:57:13;13.07;;;7.82;;
18082;SDS011;9168;51.194;6.840;2022-11-15T05:59:45;12.82;;;7.47;;
18082;SDS011;9168;51.194;6.840;2022-11-15T06:02:12;12.18;;;7.13;;
18082;SDS011;9168;51.194;6.840;2022-11-15T06:04:39;12.73;;;6.55;;
18082;SDS011;9168;51.194;6.840;2022-11-15T06:07:05;11.50;;;6.53;;
18082;SDS011;9168;51.194;6.840;2022-11-15T06:09:32;11.02;;;6.20;;
18082;SDS011;9168;51.194;6.840;2022-11-15T06:11:59;11.05;;;6.05;;
18082;SDS011;9168;51.194;6.840;2022-11-15T06:14:26;8.90;;;5.63;;
18082;SDS011;9168;51.194;6.840;2022-11-15T06:16:55;12.00;;;6.18;;
18082;SDS011;9168;51.194;6.840;2022-11-15T06:19:22;11.98;;;6.50;;
18082;SDS011;9168;51.194;6.840;2022-11-15T06:21:48;8.50;;;5.55;;
18082;SDS011;9168;51.194;6.840;2022-11-15T06:24:15;9.82;;;6.22;;
18082;SDS011;9168;51.194;6.840;2022-11-15T06:26:42;10.55;;;5.88;;
18082;SDS011;9168;51.194;6.840;2022-11-15T06:29:09;8.85;;;5.60;;
18082;SDS011;9168;51.194;6.840;2022-11-15T06:31:36;12.90;;;5.90;;
18082;SDS011;9168;51.194;6.840;2022-11-15T06:34:04;8.68;;;5.28;;
18082;SDS011;9168;51.194;6.840;2022-11-15T06:36:31;10.98;;;5.65;;
18082;SDS011;9168;51.194;6.840;2022-11-15T06:39:00;9.32;;;5.10;;
18082;SDS011;9168;51.194;6.840;2022-11-15T06:41:27;11.10;;;5.10;;
18082;SDS011;9168;51.194;6.840;2022-11-15T06:43:54;9.20;;;5.68;;
18082;SDS011;9168;51.194;6.840;2022-11-15T06:46:22;10.95;;;5.38;;
18082;SDS011;9168;51.194;6.840;2022-11-15T06:48:50;11.98;;;5.88;;
18082;SDS011;9168;51.194;6.840;2022-11-15T06:51:18;11.35;;;5.22;;
18082;SDS011;9168;51.194;6.840;2022-11-15T06:53:45;10.48;;;5.03;;
18082;SDS011;9168;51.194;6.840;2022-11-15T06:56:12;9.13;;;4.78;;
18082;SDS011;9168;51.194;6.840;2022-11-15T06:58:39;12.85;;;5.28;;
18082;SDS011;9168;51.194;6.840;2022-11-15T07:01:06;9.32;;;4.75;;
18082;SDS011;9168;51.194;6.840;2022-11-15T07:03:35;10.68;;;4.68;;
18082;SDS011;9168;51.194;6.840;2022-11-15T07:06:02;9.63;;;4.60;;
18082;SDS011;9168;51.194;6.840;2022-11-15T07:08:30;8.60;;;4.60;;
18082;SDS011;9168;51.194;6.840;2022-11-15T07:10:58;9.98;;;4.30;;
18082;SDS011;9168;51.194;6.840;2022-11-15T07:13:27;9.35;;;4.15;;
18082;SDS011;9168;51.194;6.840;2022-11-15T07:15:54;10.80;;;3.40;;
18082;SDS011;9168;51.194;6.840;2022-11-15T07:18:21;8.13;;;4.03;;
18082;SDS011;9168;51.194;6.840;2022-11-15T07:20:48;7.10;;;3.95;;
18082;SDS011;9168;51.194;6.840;2022-11-15T07:23:15;10.30;;;3.65;;
18082;SDS011;9168;51.194;6.840;2022-11-15T07:25:44;7.38;;;3.53;;
18082;SDS011;9168;51.194;6.840;2022-11-15T07:28:11;12.23;;;3.38;;
18082;SDS011;9168;51.194;6.840;2022-11-15T07:30:37;8.82;;;3.60;;
18082;SDS011;9168;51.194;6.840;2022-11-15T07:33:04;6.55;;;3.58;;
18082;SDS011;9168;51.194;6.840;2022-11-15T07:35:31;10.30;;;4.13;;
18082;SDS011;9168;51.194;6.840;2022-11-15T07:37:58;9.93;;;3.63;;
18082;SDS011;9168;51.194;6.840;2022-11-15T07:40:27;6.97;;;3.22;;
18082;SDS011;9168;51.194;6.840;2022-11-15T07:43:00;7.22;;;3.30;;
18082;SDS011;9168;51.194;6.840;2022-11-15T07:45:27;5.10;;;2.97;;
18082;SDS011;9168;51.194;6.840;2022-11-15T07:47:54;9.00;;;3.08;;
18082;SDS011;9168;51.194;6.840;2022-11-15T07:50:22;9.35;;;3.30;;
18082;SDS011;9168;51.194;6.840;2022-11-15T07:52:52;8.52;;;3.70;;
18082;SDS011;9168;51.194;6.840;2022-11-15T07:55:21;13.02;;;3.20;;
18082;SDS011;9168;51.194;6.840;2022-11-15T07:57:48;13.02;;;3.40;;
18082;SDS011;9168;51.194;6.840;2022-11-15T08:00:17;11.20;;;3.60;;
18082;SDS011;9168;51.194;6.840;2022-11-15T08:02:45;7.82;;;3.10;;
18082;SDS011;9168;51.194;6.840;2022-11-15T08:05:12;6.53;;;3.22;;
18082;SDS011;9168;51.194;6.840;2022-11-15T08:07:39;7.45;;;2.90;;
18082;SDS011;9168;51.194;6.840;2022-11-15T08:10:06;7.30;;;2.90;;
18082;SDS011;9168;51.194;6.840;2022-11-15T08:12:34;8.68;;;3.30;;
18082;SDS011;9168;51.194;6.840;2022-11-15T08:15:01;4.47;;;2.40;;
18082;SDS011;9168;51.194;6.840;2022-11-15T08:17:29;5.00;;;2.67;;
18082;SDS011;9168;51.194;6.840;2022-11-15T08:19:57;6.30;;;2.95;;
18082;SDS011;9168;51.194;6.840;2022-11-15T08:22:24;5.07;;;2.35;;
18082;SDS011;9168;51.194;6.840;2022-11-15T08:24:52;6.13;;;2.92;;
18082;SDS011;9168;51.194;6.840;2022-11-15T08:27:18;9.40;;;2.70;;
18082;SDS011;9168;51.194;6.840;2022-11-15T08:29:45;7.53;;;2.67;;
18082;SDS011;9168;51.194;6.840;2022-11-15T08:32:14;5.85;;;2.67;;
18082;SDS011;9168;51.194;6.840;2022-11-15T08:34:44;8.70;;;2.65;;
18082;SDS011;9168;51.194;6.840;2022-11-15T08:37:10;9.48;;;3.03;;
18082;SDS011;9168;51.194;6.840;2022-11-15T08:39:37;12.98;;;3.20;;
18082;SDS011;9168;51.194;6.840;2022-11-15T08:42:04;8.40;;;3.25;;
18082;SDS011;9168;51.194;6.840;2022-11-15T08:44:31;5.88;;;2.40;;
18082;SDS011;9168;51.194;6.840;2022-11-15T08:46:58;5.30;;;2.70;;
18082;SDS011;9168;51.194;6.840;2022-11-15T08:49:25;4.97;;;2.25;;
18082;SDS011;9168;51.194;6.840;2022-11-15T08:51:53;5.47;;;2.65;;
18082;SDS011;9168;51.194;6.840;2022-11-15T08:54:20;6.25;;;2.47;;
18082;SDS011;9168;51.194;6.840;2022-11-15T08:56:47;9.23;;;2.63;;
18082;SDS011;9168;51.194;6.840;2022-11-15T08:59:13;8.52;;;2.50;;
18082;SDS011;9168;51.194;6.840;2022-11-15T09:01:40;8.38;;;2.40;;
18082;SDS011;9168;51.194;6.840;2022-11-15T09:04:07;7.82;;;2.70;;
18082;SDS011;9168;51.194;6.840;2022-11-15T09:06:34;5.68;;;2.10;;
18082;SDS011;9168;51.194;6.840;2022-11-15T09:09:02;8.63;;;2.40;;
18082;SDS011;9168;51.194;6.840;2022-11-15T09:11:29;7.03;;;2.20;;
18082;SDS011;9168;51.194;6.840;2022-11-15T09:13:56;8.98;;;2.38;;
18082;SDS011;9168;51.194;6.840;2022-11-15T09:16:23;8.60;;;2.40;;
18082;SDS011;9168;51.194;6.840;2022-11-15T09:18:50;18.00;;;2.88;;
18082;SDS011;9168;51.194;6.840;2022-11-15T09:21:18;8.93;;;2.40;;
18082;SDS011;9168;51.194;6.840;2022-11-15T09:23:45;11.45;;;2.60;;
18082;SDS011;9168;51.194;6.840;2022-11-15T09:26:13;3.85;;;2.00;;
18082;SDS011;9168;51.194;6.840;2022-11-15T09:28:40;7.68;;;2.00;;
18082;SDS011;9168;51.194;6.840;2022-11-15T09:31:08;5.68;;;1.98;;
18082;SDS011;9168;51.194;6.840;2022-11-15T09:33:35;10.05;;;2.05;;
18082;SDS011;9168;51.194;6.840;2022-11-15T09:36:02;5.20;;;1.88;;
18082;SDS011;9168;51.194;6.840;2022-11-15T09:38:30;6.78;;;2.15;;
18082;SDS011;9168;51.194;6.840;2022-11-15T09:41:06;4.30;;;2.08;;
18082;SDS011;9168;51.194;6.840;2022-11-15T09:43:46;8.40;;;1.77;;
18082;SDS011;9168;51.194;6.840;2022-11-15T09:46:20;6.28;;;1.42;;
18082;SDS011;9168;51.194;6.840;2022-11-15T09:48:51;5.72;;;1.60;;
18082;SDS011;9168;51.194;6.840;2022-11-15T09:51:24;8.75;;;1.70;;
18082;SDS011;9168;51.194;6.840;2022-11-15T09:53:56;6.68;;;1.85;;
18082;SDS011;9168;51.194;6.840;2022-11-15T09:56:29;7.40;;;1.60;;
18082;SDS011;9168;51.194;6.840;2022-11-15T09:59:01;7.00;;;1.55;;
18082;SDS011;9168;51.194;6.840;2022-11-15T10:01:49;12.27;;;1.92;;
18082;SDS011;9168;51.194;6.840;2022-11-15T10:04:22;9.68;;;1.55;;
18082;SDS011;9168;51.194;6.840;2022-11-15T10:06:53;3.75;;;1.40;;
18082;SDS011;9168;51.194;6.840;2022-11-15T10:09:28;5.90;;;1.73;;
18082;SDS011;9168;51.194;6.840;2022-11-15T10:12:03;6.93;;;1.73;;
18082;SDS011;9168;51.194;6.840;2022-11-15T10:14:30;3.72;;;1.40;;
18082;SDS011;9168;51.194;6.840;2022-11-15T10:17:04;5.20;;;1.65;;
18082;SDS011;9168;51.194;6.840;2022-11-15T10:19:39;7.07;;;1.75;;
18082;SDS011;9168;51.194;6.840;2022-11-15T10:27:56;5.07;;;1.45;;
18082;SDS011;9168;51.194;6.840;2022-11-15T10:30:30;11.18;;;1.35;;
18082;SDS011;9168;51.194;6.840;2022-11-15T10:32:59;8.32;;;1.60;;
18082;SDS011;9168;51.194;6.840;2022-11-15T10:35:38;8.40;;;1.40;;
18082;SDS011;9168;51.194;6.840;2022-11-15T10:38:05;7.45;;;1.10;;
18082;SDS011;9168;51.194;6.840;2022-11-15T10:40:33;2.00;;;1.23;;
18082;SDS011;9168;51.194;6.840;2022-11-15T10:43:06;7.28;;;1.40;;
18082;SDS011;9168;51.194;6.840;2022-11-15T10:45:41;5.68;;;1.38;;
18082;SDS011;9168;51.194;6.840;2022-11-15T10:48:23;11.38;;;1.20;;
18082;SDS011;9168;51.194;6.840;2022-11-15T10:50:51;7.57;;;1.25;;
18082;SDS011;9168;51.194;6.840;2022-11-15T10:53:23;2.58;;;1.08;;
18082;SDS011;9168;51.194;6.840;2022-11-15T10:55:56;5.93;;;1.40;;
18082;SDS011;9168;51.194;6.840;2022-11-15T10:58:31;7.03;;;1.50;;
18082;SDS011;9168;51.194;6.840;2022-11-15T11:01:08;5.50;;;1.20;;
18082;SDS011;9168;51.194;6.840;2022-11-15T11:03:39;7.10;;;1.15;;
18082;SDS011;9168;51.194;6.840;2022-11-15T11:06:09;7.80;;;1.20;;
18082;SDS011;9168;51.194;6.840;2022-11-15T11:08:38;7.10;;;1.10;;
18082;SDS011;9168;51.194;6.840;2022-11-15T11:11:06;5.65;;;1.75;;
18082;SDS011;9168;51.194;6.840;2022-11-15T11:13:35;5.93;;;1.25;;
18082;SDS011;9168;51.194;6.840;2022-11-15T11:19:00;6.20;;;1.30;;
18082;SDS011;9168;51.194;6.840;2022-11-15T11:21:38;6.82;;;1.33;;
18082;SDS011;9168;51.194;6.840;2022-11-15T11:24:15;4.25;;;1.30;;
18082;SDS011;9168;51.194;6.840;2022-11-15T11:26:54;6.05;;;1.35;;
18082;SDS011;9168;51.194;6.840;2022-11-15T11:29:33;8.00;;;1.42;;
18082;SDS011;9168;51.194;6.840;2022-11-15T11:32:16;6.47;;;1.30;;
18082;SDS011;9168;51.194;6.840;2022-11-15T11:35:02;8.35;;;2.15;;
18082;SDS011;9168;51.194;6.840;2022-11-15T11:37:36;5.55;;;1.50;;
18082;SDS011;9168;51.194;6.840;2022-11-15T11:40:14;6.60;;;1.73;;
18082;SDS011;9168;51.194;6.840;2022-11-15T11:42:53;5.93;;;1.60;;
18082;SDS011;9168;51.194;6.840;2022-11-15T11:45:27;3.13;;;1.30;;
18082;SDS011;9168;51.194;6.840;2022-11-15T11:48:18;5.45;;;1.50;;
18082;SDS011;9168;51.194;6.840;2022-11-15T11:50:50;10.68;;;1.60;;
18082;SDS011;9168;51.194;6.840;2022-11-15T11:53:21;7.93;;;1.27;;
18082;SDS011;9168;51.194;6.840;2022-11-15T11:55:55;3.97;;;1.23;;
18082;SDS011;9168;51.194;6.840;2022-11-15T11:58:29;8.07;;;1.63;;
18082;SDS011;9168;51.194;6.840;2022-11-15T12:01:05;5.22;;;1.30;;
18082;SDS011;9168;51.194;6.840;2022-11-15T12:03:39;7.80;;;1.27;;
18082;SDS011;9168;51.194;6.840;2022-11-15T12:06:11;5.57;;;1.27;;
18082;SDS011;9168;51.194;6.840;2022-11-15T12:08:48;7.60;;;1.02;;
18082;SDS011;9168;51.194;6.840;2022-11-15T12:11:20;3.65;;;1.02;;
18082;SDS011;9168;51.194;6.840;2022-11-15T12:13:50;8.80;;;1.13;;
18082;SDS011;9168;51.194;6.840;2022-11-15T12:16:26;8.32;;;1.45;;
18082;SDS011;9168;51.194;6.840;2022-11-15T12:18:54;8.98;;;1.70;;
18082;SDS011;9168;51.194;6.840;2022-11-15T12:21:24;6.72;;;1.30;;
18082;SDS011;9168;51.194;6.840;2022-11-15T12:24:00;6.45;;;1.20;;
18082;SDS011;9168;51.194;6.840;2022-11-15T12:26:31;8.45;;;1.33;;
18082;SDS011;9168;51.194;6.840;2022-11-15T12:29:03;7.63;;;1.35;;
18082;SDS011;9168;51.194;6.840;2022-11-15T12:31:37;8.63;;;1.50;;
18082;SDS011;9168;51.194;6.840;2022-11-15T12:34:13;6.65;;;1.35;;
18082;SDS011;9168;51.194;6.840;2022-11-15T12:36:54;10.43;;;1.30;;
18082;SDS011;9168;51.194;6.840;2022-11-15T12:39:22;13.45;;;1.27;;
18082;SDS011;9168;51.194;6.840;2022-11-15T12:45:24;11.15;;;1.70;;
18082;SDS011;9168;51.194;6.840;2022-11-15T12:47:54;8.85;;;1.30;;
18082;SDS011;9168;51.194;6.840;2022-11-15T12:50:53;6.50;;;1.40;;
18082;SDS011;9168;51.194;6.840;2022-11-15T12:53:25;6.20;;;1.15;;
18082;SDS011;9168;51.194;6.840;2022-11-15T12:58:44;6.95;;;1.25;;
18082;SDS011;9168;51.194;6.840;2022-11-15T13:04:23;9.20;;;1.75;;
18082;SDS011;9168;51.194;6.840;2022-11-15T13:06:55;9.57;;;1.40;;
18082;SDS011;9168;51.194;6.840;2022-11-15T13:12:49;9.93;;;1.40;;
18082;SDS011;9168;51.194;6.840;2022-11-15T13:15:45;8.77;;;1.48;;
18082;SDS011;9168;51.194;6.840;2022-11-15T13:18:28;3.83;;;1.15;;
18082;SDS011;9168;51.194;6.840;2022-11-15T13:21:00;10.15;;;1.38;;
18082;SDS011;9168;51.194;6.840;2022-11-15T13:23:51;10.77;;;1.15;;
18082;SDS011;9168;51.194;6.840;2022-11-15T13:26:19;11.52;;;1.38;;
18082;SDS011;9168;51.194;6.840;2022-11-15T13:28:47;10.13;;;1.35;;
18082;SDS011;9168;51.194;6.840;2022-11-15T13:31:27;6.75;;;1.15;;
18082;SDS011;9168;51.194;6.840;2022-11-15T13:33:57;7.22;;;1.42;;
18082;SDS011;9168;51.194;6.840;2022-11-15T13:36:29;7.82;;;1.55;;
18082;SDS011;9168;51.194;6.840;2022-11-15T13:39:00;7.05;;;1.70;;
18082;SDS011;9168;51.194;6.840;2022-11-15T13:41:29;5.68;;;1.40;;
18082;SDS011;9168;51.194;6.840;2022-11-15T13:43:58;8.77;;;1.30;;
18082;SDS011;9168;51.194;6.840;2022-11-15T13:46:26;7.50;;;1.65;;
18082;SDS011;9168;51.194;6.840;2022-11-15T13:48:55;11.95;;;1.42;;
18082;SDS011;9168;51.194;6.840;2022-11-15T13:51:33;9.05;;;1.20;;
18082;SDS011;9168;51.194;6.840;2022-11-15T13:54:06;7.55;;;1.35;;
18082;SDS011;9168;51.194;6.840;2022-11-15T13:56:39;6.25;;;1.27;;
18082;SDS011;9168;51.194;6.840;2022-11-15T13:59:09;6.40;;;1.42;;
18082;SDS011;9168;51.194;6.840;2022-11-15T14:01:41;4.70;;;1.20;;
18082;SDS011;9168;51.194;6.840;2022-11-15T14:04:09;7.18;;;1.50;;
18082;SDS011;9168;51.194;6.840;2022-11-15T14:06:45;7.55;;;1.40;;
18082;SDS011;9168;51.194;6.840;2022-11-15T14:12:00;6.50;;;1.38;;
18082;SDS011;9168;51.194;6.840;2022-11-15T14:14:29;8.48;;;1.45;;
18082;SDS011;9168;51.194;6.840;2022-11-15T14:16:57;4.05;;;1.35;;
18082;SDS011;9168;51.194;6.840;2022-11-15T14:19:35;7.22;;;1.42;;
18082;SDS011;9168;51.194;6.840;2022-11-15T14:22:09;5.47;;;1.77;;
18082;SDS011;9168;51.194;6.840;2022-11-15T14:24:38;8.05;;;1.50;;
18082;SDS011;9168;51.194;6.840;2022-11-15T14:27:19;11.20;;;2.00;;
18082;SDS011;9168;51.194;6.840;2022-11-15T14:29:48;4.47;;;1.75;;
18082;SDS011;9168;51.194;6.840;2022-11-15T14:32:16;6.78;;;1.85;;
18082;SDS011;9168;51.194;6.840;2022-11-15T14:34:44;9.07;;;2.10;;
18082;SDS011;9168;51.194;6.840;2022-11-15T14:37:18;12.38;;;2.60;;
18082;SDS011;9168;51.194;6.840;2022-11-15T14:39:47;4.80;;;1.92;;
18082;SDS011;9168;51.194;6.840;2022-11-15T14:42:14;4.18;;;1.77;;
18082;SDS011;9168;51.194;6.840;2022-11-15T14:44:41;4.53;;;1.75;;
18082;SDS011;9168;51.194;6.840;2022-11-15T14:47:08;8.85;;;2.58;;
18082;SDS011;9168;51.194;6.840;2022-11-15T14:49:35;7.60;;;2.05;;
18082;SDS011;9168;51.194;6.840;2022-11-15T14:52:02;4.75;;;2.03;;
18082;SDS011;9168;51.194;6.840;2022-11-15T14:54:35;9.68;;;2.97;;
18082;SDS011;9168;51.194;6.840;2022-11-15T14:57:01;7.32;;;2.20;;
18082;SDS011;9168;51.194;6.840;2022-11-15T14:59:28;7.53;;;1.98;;
18082;SDS011;9168;51.194;6.840;2022-11-15T15:01:55;9.43;;;2.40;;
18082;SDS011;9168;51.194;6.840;2022-11-15T15:04:24;5.45;;;2.20;;
18082;SDS011;9168;51.194;6.840;2022-11-15T15:06:52;7.20;;;2.42;;
18082;SDS011;9168;51.194;6.840;2022-11-15T15:09:19;8.82;;;2.47;;
18082;SDS011;9168;51.194;6.840;2022-11-15T15:11:47;6.82;;;1.80;;
18082;SDS011;9168;51.194;6.840;2022-11-15T15:14:14;5.45;;;2.00;;
18082;SDS011;9168;51.194;6.840;2022-11-15T15:16:41;8.05;;;2.50;;
18082;SDS011;9168;51.194;6.840;2022-11-15T15:19:07;7.45;;;2.13;;
18082;SDS011;9168;51.194;6.840;2022-11-15T15:21:34;5.85;;;2.10;;
18082;SDS011;9168;51.194;6.840;2022-11-15T15:24:01;7.30;;;2.22;;
18082;SDS011;9168;51.194;6.840;2022-11-15T15:26:28;4.85;;;2.03;;
18082;SDS011;9168;51.194;6.840;2022-11-15T15:29:00;7.72;;;2.53;;
18082;SDS011;9168;51.194;6.840;2022-11-15T15:31:26;12.85;;;2.17;;
18082;SDS011;9168;51.194;6.840;2022-11-15T15:33:53;6.28;;;2.47;;
18082;SDS011;9168;51.194;6.840;2022-11-15T15:36:20;6.35;;;2.13;;
18082;SDS011;9168;51.194;6.840;2022-11-15T15:38:47;4.25;;;1.75;;
18082;SDS011;9168;51.194;6.840;2022-11-15T15:41:14;5.05;;;1.95;;
18082;SDS011;9168;51.194;6.840;2022-11-15T15:43:42;4.20;;;1.90;;